Time;durP1;ratioP1;P1;durP2;ratioP2;P2;SDS_P1;SDS_P2;PMS_P1;PMS_P2;Temp;Humidity;BMP_temperature;BMP_pressure;BME280_temperature;BME280_humidity;BME280_pressure;Samples;Min_cycle;Max_cycle;Signal;HPM_P1;HPM_P2
2021/05/22 00:02:06;;;;;;;21.27;19.97;;;;;;;;;;5014500;28;20422;-90
2021/05/22 00:04:33;;;;;;;21.07;19.87;;;;;;;;;;4996705;28;20463;-90
2021/05/22 00:07:00;;;;;;;22.37;20.67;;;;;;;;;;5014537;28;20444;-89
2021/05/22 00:09:27;;;;;;;22.00;20.53;;;;;;;;;;5014360;28;21089;-90
2021/05/22 00:11:54;;;;;;;22.50;21.07;;;;;;;;;;4997169;28;20415;-90
2021/05/22 00:14:21;;;;;;;21.40;20.10;;;;;;;;;;5014479;28;20426;-90
2021/05/22 00:16:49;;;;;;;21.83;20.43;;;;;;;;;;5014244;28;20567;-90
2021/05/22 00:19:17;;;;;;;21.40;20.10;;;;;;;;;;5014241;28;20465;-89
2021/05/22 00:21:44;;;;;;;22.30;20.80;;;;;;;;;;5014667;28;20926;-89
2021/05/22 00:24:11;;;;;;;22.30;20.97;;;;;;;;;;5014094;28;20484;-90
2021/05/22 00:26:38;;;;;;;22.13;20.80;;;;;;;;;;5014591;28;20452;-90
2021/05/22 00:29:05;;;;;;;21.53;20.13;;;;;;;;;;5018064;28;20456;-90
2021/05/22 00:31:33;;;;;;;21.33;19.93;;;;;;;;;;5018288;28;20419;-88
2021/05/22 00:34:01;;;;;;;21.30;20.00;;;;;;;;;;5017943;28;20407;-90
2021/05/22 00:36:28;;;;;;;20.73;19.43;;;;;;;;;;5000832;28;20419;-89
2021/05/22 00:38:55;;;;;;;21.53;20.13;;;;;;;;;;5018433;28;20452;-90
2021/05/22 00:41:22;;;;;;;21.90;20.50;;;;;;;;;;5018257;28;20421;-89
2021/05/22 00:43:49;;;;;;;21.55;20.10;;;;;;;;;;5017626;28;20452;-90
2021/05/22 00:46:16;;;;;;;21.40;20.00;;;;;;;;;;5017587;28;20450;-88
2021/05/22 00:48:43;;;;;;;21.10;19.80;;;;;;;;;;5001046;28;20444;-89
2021/05/22 00:51:11;;;;;;;20.60;19.30;;;;;;;;;;5000757;28;20451;-89
2021/05/22 00:53:38;;;;;;;21.57;20.20;;;;;;;;;;5000616;28;20455;-90
2021/05/22 00:56:05;;;;;;;21.87;20.43;;;;;;;;;;5017496;28;20898;-90
2021/05/22 00:58:34;;;;;;;21.57;20.23;;;;;;;;;;5017800;28;20402;-90
2021/05/22 01:01:01;;;;;;;21.47;20.17;;;;;;;;;;5017722;28;20422;-89
2021/05/22 01:03:29;;;;;;;21.03;19.83;;;;;;;;;;5017260;28;20471;-90
2021/05/22 01:06:02;;;;;;;21.87;20.57;;;;;;;;;;5000193;28;20530;-90
2021/05/22 01:08:30;;;;;;;21.23;19.93;;;;;;;;;;5017497;28;20463;-90
2021/05/22 01:10:59;;;;;;;21.93;20.47;;;;;;;;;;5017169;28;20452;-90
2021/05/22 01:13:27;;;;;;;21.27;19.97;;;;;;;;;;5017625;28;20452;-90
2021/05/22 01:15:55;;;;;;;21.50;20.10;;;;;;;;;;5017432;28;20459;-90
2021/05/22 01:18:23;;;;;;;21.23;19.90;;;;;;;;;;5017276;28;20440;-90
2021/05/22 01:20:53;;;;;;;21.47;20.07;;;;;;;;;;5017037;28;20461;-90
2021/05/22 01:23:22;;;;;;;20.90;19.60;;;;;;;;;;5016831;28;20419;-90
2021/05/22 01:25:51;;;;;;;21.60;20.10;;;;;;;;;;5016905;28;20952;-89
2021/05/22 01:28:18;;;;;;;21.50;20.17;;;;;;;;;;5017223;28;20407;-89
2021/05/22 01:30:46;;;;;;;21.07;19.80;;;;;;;;;;5016885;28;20412;-90
2021/05/22 01:33:13;;;;;;;20.30;19.03;;;;;;;;;;5000092;28;20426;-90
2021/05/22 01:35:40;;;;;;;21.67;20.30;;;;;;;;;;5000144;28;20474;-89
2021/05/22 01:38:08;;;;;;;20.60;19.37;;;;;;;;;;5017011;28;20808;-89
2021/05/22 01:40:35;;;;;;;21.23;19.73;;;;;;;;;;5016696;28;20538;-89
2021/05/22 01:43:03;;;;;;;21.37;19.90;;;;;;;;;;5016902;28;20487;-89
2021/05/22 01:45:32;;;;;;;21.63;20.20;;;;;;;;;;4999417;28;20459;-89
2021/05/22 01:48:01;;;;;;;20.90;19.60;;;;;;;;;;5016513;28;20495;-89
2021/05/22 01:50:28;;;;;;;21.73;20.20;;;;;;;;;;5016960;28;20430;-89
2021/05/22 01:52:56;;;;;;;21.40;19.90;;;;;;;;;;5016826;28;20846;-89
2021/05/22 01:55:23;;;;;;;21.33;19.50;;;;;;;;;;5016956;28;20791;-89
2021/05/22 01:57:50;;;;;;;21.40;19.80;;;;;;;;;;5017196;28;20429;-89
2021/05/22 02:00:19;;;;;;;21.10;19.60;;;;;;;;;;5016291;28;20447;-89
2021/05/22 02:02:51;;;;;;;20.73;19.30;;;;;;;;;;4998704;28;20423;-88
2021/05/22 02:05:18;;;;;;;21.03;19.53;;;;;;;;;;5016436;28;20546;-89
2021/05/22 02:07:46;;;;;;;20.23;19.03;;;;;;;;;;5016446;28;20764;-89
2021/05/22 02:10:13;;;;;;;20.77;19.40;;;;;;;;;;5016653;28;20441;-88
2021/05/22 02:12:40;;;;;;;20.67;19.57;;;;;;;;;;5016205;28;20458;-88
2021/05/22 02:15:10;;;;;;;21.00;19.50;;;;;;;;;;5017261;28;20741;-90
2021/05/22 02:17:38;;;;;;;20.30;19.10;;;;;;;;;;5016671;28;20433;-90
2021/05/22 02:20:06;;;;;;;20.87;19.50;;;;;;;;;;5016661;28;20469;-88
2021/05/22 02:22:34;;;;;;;21.37;19.80;;;;;;;;;;5016285;28;20423;-89
2021/05/22 02:25:00;;;;;;;20.10;19.00;;;;;;;;;;5016290;28;20848;-89
2021/05/22 02:27:28;;;;;;;21.43;19.87;;;;;;;;;;5016151;28;20443;-89
2021/05/22 02:29:56;;;;;;;21.57;20.17;;;;;;;;;;5015994;28;20469;-89
2021/05/22 02:32:23;;;;;;;21.50;20.20;;;;;;;;;;5016055;28;20418;-89
2021/05/22 02:34:52;;;;;;;20.63;19.43;;;;;;;;;;4998467;28;20824;-89
2021/05/22 02:37:19;;;;;;;20.53;19.43;;;;;;;;;;5016025;28;20418;-89
2021/05/22 02:39:50;;;;;;;20.80;19.60;;;;;;;;;;5016072;28;20466;-89
2021/05/22 02:42:18;;;;;;;20.63;19.10;;;;;;;;;;5015631;28;20440;-89
2021/05/22 02:44:47;;;;;;;21.00;19.43;;;;;;;;;;4998297;28;20952;-89
2021/05/22 02:47:14;;;;;;;20.70;19.50;;;;;;;;;;5015696;28;20476;-89
2021/05/22 02:49:42;;;;;;;20.60;19.30;;;;;;;;;;5014350;28;20442;-89
2021/05/22 02:52:11;;;;;;;20.50;19.30;;;;;;;;;;5015879;28;20443;-89
2021/05/22 02:54:40;;;;;;;20.87;19.57;;;;;;;;;;5015317;28;20419;-89
2021/05/22 02:57:07;;;;;;;20.97;19.67;;;;;;;;;;5015254;28;20909;-89
2021/05/22 02:59:34;;;;;;;21.17;19.67;;;;;;;;;;5015593;28;20456;-89
2021/05/22 03:02:02;;;;;;;21.37;19.97;;;;;;;;;;5015446;28;20865;-89
2021/05/22 03:04:29;;;;;;;21.90;20.30;;;;;;;;;;5015626;28;20483;-90
2021/05/22 03:06:56;;;;;;;22.00;20.50;;;;;;;;;;5015350;28;20407;-89
2021/05/22 03:09:24;;;;;;;21.50;20.17;;;;;;;;;;5015020;28;20510;-89
2021/05/22 03:11:51;;;;;;;21.73;20.10;;;;;;;;;;5015283;28;20452;-89
2021/05/22 03:14:18;;;;;;;21.80;20.23;;;;;;;;;;4998300;28;20452;-89
2021/05/22 03:16:45;;;;;;;21.00;19.60;;;;;;;;;;5015204;28;20447;-89
2021/05/22 03:19:12;;;;;;;21.17;19.67;;;;;;;;;;4997807;28;20444;-89
2021/05/22 03:21:39;;;;;;;22.73;20.97;;;;;;;;;;4997949;28;20448;-89
2021/05/22 03:24:07;;;;;;;22.17;20.67;;;;;;;;;;5014996;28;20465;-89
2021/05/22 03:26:35;;;;;;;20.70;19.40;;;;;;;;;;4997966;28;20454;-89
2021/05/22 03:29:02;;;;;;;20.97;19.70;;;;;;;;;;5014704;28;20479;-89
2021/05/22 03:31:29;;;;;;;20.50;19.30;;;;;;;;;;5014706;28;20459;-89
2021/05/22 03:33:56;;;;;;;21.37;19.97;;;;;;;;;;5014952;28;20450;-89
2021/05/22 03:36:23;;;;;;;21.37;19.97;;;;;;;;;;5014984;28;20473;-89
2021/05/22 03:38:50;;;;;;;21.90;20.50;;;;;;;;;;5014568;28;20446;-89
2021/05/22 03:41:17;;;;;;;21.10;19.77;;;;;;;;;;4997403;28;20451;-90
2021/05/22 03:43:45;;;;;;;21.43;19.80;;;;;;;;;;4997474;28;20796;-92
2021/05/22 03:46:12;;;;;;;21.27;19.97;;;;;;;;;;4997368;28;20462;-92
2021/05/22 03:48:40;;;;;;;21.30;19.67;;;;;;;;;;5014761;28;20767;-89
2021/05/22 03:51:06;;;;;;;20.43;19.13;;;;;;;;;;5014669;28;20439;-87
2021/05/22 03:53:33;;;;;;;20.77;19.20;;;;;;;;;;5014763;28;20444;-88
2021/05/22 03:56:00;;;;;;;21.30;19.70;;;;;;;;;;5014798;28;20443;-94
2021/05/22 03:58:27;;;;;;;20.80;19.10;;;;;;;;;;5014772;28;20418;-95
2021/05/22 04:00:55;;;;;;;20.80;19.40;;;;;;;;;;5014624;28;20452;-95
2021/05/22 04:03:25;;;;;;;20.43;18.97;;;;;;;;;;5014468;28;20467;-94
2021/05/22 04:05:52;;;;;;;20.37;18.87;;;;;;;;;;5014643;28;20603;-94
2021/05/22 04:08:19;;;;;;;20.43;19.20;;;;;;;;;;5014751;28;20459;-93
2021/05/22 04:10:46;;;;;;;20.60;19.30;;;;;;;;;;4997102;28;20479;-94
2021/05/22 04:13:13;;;;;;;21.00;19.37;;;;;;;;;;5014228;28;20455;-94
2021/05/22 04:15:41;;;;;;;19.93;18.63;;;;;;;;;;5013962;28;20911;-94
2021/05/22 04:18:09;;;;;;;19.83;18.43;;;;;;;;;;5014001;28;20418;-94
2021/05/22 04:20:36;;;;;;;20.83;19.43;;;;;;;;;;5014612;28;20437;-94
2021/05/22 04:23:03;;;;;;;19.77;18.47;;;;;;;;;;5014192;28;20930;-94
2021/05/22 04:25:30;;;;;;;20.43;19.33;;;;;;;;;;5014425;28;20459;-94
2021/05/22 04:27:57;;;;;;;20.33;18.83;;;;;;;;;;5014403;28;20423;-93
2021/05/22 04:30:24;;;;;;;20.50;19.10;;;;;;;;;;5014505;28;20469;-93
2021/05/22 04:32:51;;;;;;;21.50;20.20;;;;;;;;;;5014313;28;20440;-93
2021/05/22 04:35:19;;;;;;;21.70;20.30;;;;;;;;;;5014382;28;20465;-90
2021/05/22 04:37:46;;;;;;;20.50;18.97;;;;;;;;;;5014312;28;20434;-93
2021/05/22 04:40:13;;;;;;;20.33;18.93;;;;;;;;;;5013497;28;20839;-91
2021/05/22 04:42:40;;;;;;;23.40;22.10;;;;;;;;;;5014043;28;20448;-92
2021/05/22 04:45:08;;;;;;;22.40;20.83;;;;;;;;;;5014141;28;20512;-92
2021/05/22 04:47:35;;;;;;;23.70;22.00;;;;;;;;;;4996771;28;20454;-92
2021/05/22 04:50:02;;;;;;;21.90;20.50;;;;;;;;;;5012984;28;20431;-86
2021/05/22 04:52:30;;;;;;;21.43;19.70;;;;;;;;;;5015042;28;20411;-96
2021/05/22 04:54:56;;;;;;;21.33;19.90;;;;;;;;;;5014474;28;20444;-82
2021/05/22 04:57:23;;;;;;;21.67;20.20;;;;;;;;;;5015440;28;20920;-95
2021/05/22 04:59:50;;;;;;;21.50;20.20;;;;;;;;;;5018859;28;20448;-96
2021/05/22 05:02:17;;;;;;;22.47;21.00;;;;;;;;;;5014698;28;20422;-92
2021/05/22 05:04:44;;;;;;;20.87;19.57;;;;;;;;;;5014073;28;20495;-92
2021/05/22 05:07:11;;;;;;;20.87;19.63;;;;;;;;;;5014197;28;20914;-90
2021/05/22 05:09:39;;;;;;;21.40;20.00;;;;;;;;;;5014378;28;20442;-84
2021/05/22 05:12:07;;;;;;;21.47;20.17;;;;;;;;;;5013121;28;20430;-80
2021/05/22 05:14:34;;;;;;;22.00;20.50;;;;;;;;;;5016948;28;20840;-80
2021/05/22 05:17:01;;;;;;;21.73;20.30;;;;;;;;;;5016649;28;21034;-81
2021/05/22 05:19:28;;;;;;;21.37;19.90;;;;;;;;;;5016246;28;20437;-80
2021/05/22 05:21:56;;;;;;;20.77;19.20;;;;;;;;;;5017274;28;20419;-81
2021/05/22 05:24:23;;;;;;;21.90;20.20;;;;;;;;;;5016448;28;20436;-80
2021/05/22 05:26:50;;;;;;;21.17;19.67;;;;;;;;;;5016423;28;20418;-81
2021/05/22 05:29:18;;;;;;;21.37;19.70;;;;;;;;;;5016247;28;20422;-81
2021/05/22 05:31:45;;;;;;;21.23;20.03;;;;;;;;;;5016191;28;20473;-81
2021/05/22 05:34:12;;;;;;;21.60;19.77;;;;;;;;;;5016671;28;20457;-79
2021/05/22 05:36:39;;;;;;;23.03;21.23;;;;;;;;;;5016248;28;20444;-80
2021/05/22 05:39:06;;;;;;;21.80;20.30;;;;;;;;;;5016423;28;20448;-87
2021/05/22 05:41:33;;;;;;;20.93;19.73;;;;;;;;;;4999646;28;20455;-86
2021/05/22 05:44:08;;;;;;;21.43;20.03;;;;;;;;;;5017943;28;20399;-86
2021/05/22 05:46:35;;;;;;;21.20;19.90;;;;;;;;;;5016962;28;20507;-85
2021/05/22 05:49:02;;;;;;;20.97;19.67;;;;;;;;;;5016980;28;20423;-88
2021/05/22 05:51:29;;;;;;;21.60;19.90;;;;;;;;;;4999917;28;20445;-85
2021/05/22 05:53:56;;;;;;;22.50;20.90;;;;;;;;;;5018106;28;20407;-87
2021/05/22 05:56:22;;;;;;;22.13;20.83;;;;;;;;;;5017461;28;20440;-86
2021/05/22 05:58:54;;;;;;;21.07;19.60;;;;;;;;;;4999724;28;20497;-86
2021/05/22 06:01:24;;;;;;;20.70;19.30;;;;;;;;;;5015891;28;20465;-86
2021/05/22 06:03:52;;;;;;;21.30;19.90;;;;;;;;;;4998523;28;20483;-79
2021/05/22 06:06:24;;;;;;;22.73;21.07;;;;;;;;;;5015891;28;20593;-80
2021/05/22 06:08:53;;;;;;;21.57;20.17;;;;;;;;;;5015552;28;20418;-80
2021/05/22 06:11:29;;;;;;;23.27;21.43;;;;;;;;;;4998433;28;20434;-89
2021/05/22 06:14:00;;;;;;;21.20;19.80;;;;;;;;;;5016247;28;20884;-91
2021/05/22 06:16:43;;;;;;;21.10;19.70;;;;;;;;;;4999511;28;20451;-93
2021/05/22 06:19:14;;;;;;;20.70;19.20;;;;;;;;;;5013310;28;20427;-91
2021/05/22 06:21:46;;;;;;;21.20;19.87;;;;;;;;;;5016623;28;20436;-86
2021/05/22 06:24:17;;;;;;;20.80;19.40;;;;;;;;;;5014767;28;20423;-79
2021/05/22 06:26:47;;;;;;;22.20;21.00;;;;;;;;;;5015569;28;20470;-84
2021/05/22 06:29:14;;;;;;;21.17;19.77;;;;;;;;;;5015103;28;20840;-85
2021/05/22 06:31:42;;;;;;;21.67;19.93;;;;;;;;;;5015930;28;20444;-85
2021/05/22 06:34:09;;;;;;;21.60;20.10;;;;;;;;;;5015681;28;20881;-85
2021/05/22 06:36:36;;;;;;;22.40;20.90;;;;;;;;;;5016014;28;20464;-85
2021/05/22 06:39:03;;;;;;;22.13;20.63;;;;;;;;;;5015695;28;20436;-84
2021/05/22 06:41:30;;;;;;;22.50;20.90;;;;;;;;;;4998464;28;20448;-85
2021/05/22 06:43:57;;;;;;;23.70;22.20;;;;;;;;;;5015446;28;20426;-85
2021/05/22 06:49:10;;;;;;;20.57;19.07;;;;;;;;;;5015486;28;20402;-84
2021/05/22 06:51:37;;;;;;;20.90;19.40;;;;;;;;;;5015353;28;20443;-85
2021/05/22 06:54:04;;;;;;;21.87;19.93;;;;;;;;;;5015727;28;20439;-90
2021/05/22 06:56:31;;;;;;;22.77;20.90;;;;;;;;;;5015819;28;20440;-83
2021/05/22 06:58:58;;;;;;;22.90;20.90;;;;;;;;;;5015265;28;20550;-83
2021/05/22 07:01:25;;;;;;;21.53;19.80;;;;;;;;;;5014764;28;20416;-84
2021/05/22 07:03:52;;;;;;;21.77;20.43;;;;;;;;;;5014817;28;20447;-82
2021/05/22 07:06:22;;;;;;;21.40;20.00;;;;;;;;;;5014491;28;20481;-81
2021/05/22 07:08:48;;;;;;;21.87;20.10;;;;;;;;;;5014984;28;20415;-81
2021/05/22 07:11:15;;;;;;;21.43;20.13;;;;;;;;;;5014354;28;20833;-80
2021/05/22 07:13:42;;;;;;;21.20;20.00;;;;;;;;;;5014773;28;20440;-79
2021/05/22 07:16:09;;;;;;;21.33;19.70;;;;;;;;;;5014568;28;20422;-81
2021/05/22 07:18:36;;;;;;;21.63;20.33;;;;;;;;;;5014289;28;20407;-81
2021/05/22 07:21:03;;;;;;;21.93;20.37;;;;;;;;;;5014143;28;20464;-82
2021/05/22 07:23:32;;;;;;;21.30;19.97;;;;;;;;;;4996990;28;20430;-80
2021/05/22 07:25:59;;;;;;;22.67;20.63;;;;;;;;;;5014496;28;20470;-81
2021/05/22 07:28:26;;;;;;;20.20;19.10;;;;;;;;;;4997359;28;20452;-82
2021/05/22 07:30:53;;;;;;;21.33;19.60;;;;;;;;;;5014537;28;20444;-82
2021/05/22 07:33:20;;;;;;;20.43;19.17;;;;;;;;;;5013643;28;20507;-80
2021/05/22 07:35:47;;;;;;;20.83;19.33;;;;;;;;;;4995243;28;20434;-81
2021/05/22 07:38:14;;;;;;;20.50;19.03;;;;;;;;;;5013741;28;20437;-81
2021/05/22 07:40:42;;;;;;;20.90;19.40;;;;;;;;;;5013837;28;20404;-81
2021/05/22 07:43:09;;;;;;;20.20;18.90;;;;;;;;;;5013920;28;20807;-81
2021/05/22 07:45:36;;;;;;;20.73;19.37;;;;;;;;;;4996211;28;20541;-81
2021/05/22 07:48:03;;;;;;;20.37;18.90;;;;;;;;;;5013791;28;20862;-81
2021/05/22 07:50:31;;;;;;;20.07;18.83;;;;;;;;;;5013873;28;20427;-81
2021/05/22 07:52:58;;;;;;;20.97;19.47;;;;;;;;;;5014154;28;20423;-80
2021/05/22 07:55:24;;;;;;;19.03;18.03;;;;;;;;;;5013913;28;20411;-80
2021/05/22 07:57:53;;;;;;;19.73;18.43;;;;;;;;;;5013783;28;20444;-81
2021/05/22 08:00:20;;;;;;;20.70;19.30;;;;;;;;;;5014251;28;20441;-81
2021/05/22 08:02:47;;;;;;;20.10;18.90;;;;;;;;;;5013732;28;20559;-81
2021/05/22 08:05:14;;;;;;;20.90;19.40;;;;;;;;;;5014653;28;20457;-93
2021/05/22 08:07:41;;;;;;;20.60;19.20;;;;;;;;;;5015418;28;20889;-88
2021/05/22 08:10:09;;;;;;;21.10;19.10;;;;;;;;;;5014481;28;20422;-86
2021/05/22 08:12:36;;;;;;;20.50;19.23;;;;;;;;;;5014003;28;20893;-84
2021/05/22 08:15:05;;;;;;;20.33;19.13;;;;;;;;;;5013858;28;20928;-86
2021/05/22 08:17:31;;;;;;;20.40;19.20;;;;;;;;;;5014227;28;20791;-85
2021/05/22 08:19:58;;;;;;;20.27;18.90;;;;;;;;;;5013914;28;20449;-85
2021/05/22 08:22:25;;;;;;;20.87;19.40;;;;;;;;;;5013664;28;20448;-84
2021/05/22 08:24:52;;;;;;;19.80;18.67;;;;;;;;;;5013703;28;20437;-84
2021/05/22 08:27:21;;;;;;;20.40;19.10;;;;;;;;;;5013795;28;20933;-84
2021/05/22 08:29:48;;;;;;;21.90;19.83;;;;;;;;;;5013691;28;20511;-85
2021/05/22 08:32:16;;;;;;;20.13;18.70;;;;;;;;;;4996561;28;20426;-84
2021/05/22 08:34:43;;;;;;;20.50;19.10;;;;;;;;;;4997568;28;20415;-85
2021/05/22 08:37:11;;;;;;;19.60;18.30;;;;;;;;;;5013922;28;20472;-82
2021/05/22 08:39:43;;;;;;;20.23;19.03;;;;;;;;;;5014257;28;20409;-84
2021/05/22 08:42:11;;;;;;;20.03;18.80;;;;;;;;;;5013688;28;20439;-85
2021/05/22 08:44:39;;;;;;;20.70;19.50;;;;;;;;;;5014800;28;20460;-86
2021/05/22 08:47:06;;;;;;;20.63;19.23;;;;;;;;;;5013888;28;20484;-85
2021/05/22 08:49:41;;;;;;;20.47;19.27;;;;;;;;;;5017620;28;20422;-87
2021/05/22 08:52:09;;;;;;;20.77;19.57;;;;;;;;;;5018187;28;20882;-86
2021/05/22 08:54:36;;;;;;;20.07;18.70;;;;;;;;;;5017899;28;20444;-85
2021/05/22 08:57:03;;;;;;;20.20;19.00;;;;;;;;;;5017467;28;20419;-85
2021/05/22 08:59:30;;;;;;;19.90;18.80;;;;;;;;;;5017144;28;20436;-84
2021/05/22 09:01:57;;;;;;;20.87;19.37;;;;;;;;;;4999811;28;20885;-83
2021/05/22 09:04:24;;;;;;;18.90;17.90;;;;;;;;;;5017429;28;20487;-84
2021/05/22 09:07:02;;;;;;;19.00;17.90;;;;;;;;;;5017631;28;20462;-85
2021/05/22 09:09:38;;;;;;;18.47;17.40;;;;;;;;;;5010704;28;20423;-84
2021/05/22 09:12:06;;;;;;;18.80;17.70;;;;;;;;;;4997936;28;20423;-82
2021/05/22 09:14:43;;;;;;;18.87;17.67;;;;;;;;;;4996864;28;20422;-83
2021/05/22 09:17:11;;;;;;;18.13;17.13;;;;;;;;;;4997674;28;20819;-82
2021/05/22 09:19:38;;;;;;;18.60;17.70;;;;;;;;;;4997389;28;20491;-84
2021/05/22 09:22:19;;;;;;;18.37;17.47;;;;;;;;;;4997403;28;20850;-84
2021/05/22 09:25:04;;;;;;;18.73;17.70;;;;;;;;;;4997477;28;20415;-84
2021/05/22 09:27:33;;;;;;;18.30;17.30;;;;;;;;;;4997491;28;20442;-84
2021/05/22 09:30:11;;;;;;;18.87;17.73;;;;;;;;;;4980058;28;20461;-84
2021/05/22 09:32:39;;;;;;;18.60;17.40;;;;;;;;;;4979504;28;20426;-84
2021/05/22 09:35:06;;;;;;;18.60;17.53;;;;;;;;;;4997410;28;20441;-85
2021/05/22 09:37:39;;;;;;;18.03;17.03;;;;;;;;;;4997214;28;20450;-84
2021/05/22 09:40:07;;;;;;;18.80;17.80;;;;;;;;;;4997365;28;20440;-85
2021/05/22 09:42:34;;;;;;;20.63;19.33;;;;;;;;;;4997172;28;20429;-84
2021/05/22 09:45:01;;;;;;;18.20;17.30;;;;;;;;;;4979571;28;20419;-85
2021/05/22 09:47:28;;;;;;;19.80;18.50;;;;;;;;;;4996711;28;20512;-85
2021/05/22 09:49:55;;;;;;;19.90;18.90;;;;;;;;;;4997031;28;20456;-84
2021/05/22 09:52:22;;;;;;;19.17;18.17;;;;;;;;;;4996758;28;20458;-84
2021/05/22 09:54:52;;;;;;;19.50;18.40;;;;;;;;;;4980342;28;20434;-85
2021/05/22 09:57:19;;;;;;;19.10;18.03;;;;;;;;;;4997144;28;20496;-85
2021/05/22 10:00:10;;;;;;;19.60;18.30;;;;;;;;;;4996854;28;20427;-84
2021/05/22 10:02:41;;;;;;;18.53;17.50;;;;;;;;;;4996288;28;20526;-84
2021/05/22 10:05:15;;;;;;;19.40;18.40;;;;;;;;;;4996432;28;20979;-84
2021/05/22 10:07:43;;;;;;;18.67;17.57;;;;;;;;;;4995951;28;20427;-84
2021/05/22 10:10:11;;;;;;;19.23;18.03;;;;;;;;;;4996797;28;20445;-84
2021/05/22 10:12:39;;;;;;;18.67;17.67;;;;;;;;;;4996801;28;20412;-85
2021/05/22 10:15:07;;;;;;;18.87;17.67;;;;;;;;;;4996373;28;20439;-84
2021/05/22 10:17:34;;;;;;;18.80;17.70;;;;;;;;;;4996457;28;20902;-86
2021/05/22 10:20:01;;;;;;;18.93;17.93;;;;;;;;;;4996441;28;20499;-86
2021/05/22 10:22:28;;;;;;;18.33;17.33;;;;;;;;;;4996628;28;20408;-85
2021/05/22 10:24:55;;;;;;;18.00;17.10;;;;;;;;;;4996522;28;20553;-85
2021/05/22 10:27:23;;;;;;;17.93;17.00;;;;;;;;;;4996963;28;20420;-85
2021/05/22 10:29:50;;;;;;;18.70;17.80;;;;;;;;;;4996606;28;20408;-84
2021/05/22 10:32:22;;;;;;;17.83;16.83;;;;;;;;;;4996116;28;20453;-84
2021/05/22 10:34:49;;;;;;;18.07;17.17;;;;;;;;;;4995925;28;20472;-84
2021/05/22 10:37:31;;;;;;;18.13;17.13;;;;;;;;;;4996199;28;20465;-83
2021/05/22 10:39:58;;;;;;;18.20;17.20;;;;;;;;;;4995335;28;20939;-84
2021/05/22 10:42:44;;;;;;;17.67;16.77;;;;;;;;;;4996296;28;20423;-84
2021/05/22 10:45:32;;;;;;;18.93;17.73;;;;;;;;;;4996014;28;20455;-84
2021/05/22 10:47:59;;;;;;;17.70;16.80;;;;;;;;;;4995677;28;20466;-85
2021/05/22 10:50:42;;;;;;;17.40;16.50;;;;;;;;;;4996016;28;20420;-84
2021/05/22 10:53:32;;;;;;;18.30;17.40;;;;;;;;;;4996313;28;20553;-85
2021/05/22 10:56:19;;;;;;;18.07;17.17;;;;;;;;;;4996057;28;20477;-85
2021/05/22 10:59:09;;;;;;;18.30;17.37;;;;;;;;;;4989658;28;20438;-84
2021/05/22 11:01:39;;;;;;;18.83;17.70;;;;;;;;;;4996043;28;20458;-84
2021/05/22 11:04:28;;;;;;;18.60;17.60;;;;;;;;;;4995678;28;20488;-84
2021/05/22 11:06:56;;;;;;;18.27;17.37;;;;;;;;;;4995781;28;20459;-83
2021/05/22 11:09:40;;;;;;;18.73;17.73;;;;;;;;;;4995899;28;20452;-85
2021/05/22 11:12:29;;;;;;;18.57;17.27;;;;;;;;;;4982417;28;20442;-83
2021/05/22 11:14:57;;;;;;;17.40;16.60;;;;;;;;;;5003398;28;20798;-88
2021/05/22 11:17:42;;;;;;;18.50;17.40;;;;;;;;;;5015332;28;20498;-88
2021/05/22 11:20:19;;;;;;;18.30;17.30;;;;;;;;;;5015161;28;20440;-79
2021/05/22 11:23:00;;;;;;;17.37;16.57;;;;;;;;;;5014624;28;20411;-80
2021/05/22 11:25:29;;;;;;;18.40;17.23;;;;;;;;;;5014496;28;20506;-78
2021/05/22 11:28:00;;;;;;;19.10;17.80;;;;;;;;;;5014528;28;20484;-87
2021/05/22 11:30:43;;;;;;;18.97;17.30;;;;;;;;;;5014616;28;20862;-79
2021/05/22 11:33:11;;;;;;;18.23;17.13;;;;;;;;;;5014303;28;20501;-79
2021/05/22 11:35:44;;;;;;;17.93;17.00;;;;;;;;;;4996827;28;20458;-79
2021/05/22 11:38:38;;;;;;;18.10;17.20;;;;;;;;;;5014079;28;20415;-79
2021/05/22 11:41:07;;;;;;;18.37;17.30;;;;;;;;;;4934474;29;20470;-79
2021/05/22 11:43:34;;;;;;;18.40;17.37;;;;;;;;;;4934483;29;20429;-79
2021/05/22 11:46:01;;;;;;;18.27;17.33;;;;;;;;;;4932901;29;20495;-86
2021/05/22 11:48:29;;;;;;;17.30;16.30;;;;;;;;;;4918945;29;20499;-86
2021/05/22 11:51:06;;;;;;;18.53;17.30;;;;;;;;;;4936148;29;20487;-90
2021/05/22 11:53:33;;;;;;;17.97;17.07;;;;;;;;;;4937658;29;20551;-88
2021/05/22 11:56:01;;;;;;;17.83;16.93;;;;;;;;;;4936461;29;20444;-90
2021/05/22 11:58:28;;;;;;;17.40;16.60;;;;;;;;;;4935253;29;20511;-81
2021/05/22 12:00:56;;;;;;;17.47;16.67;;;;;;;;;;4934434;29;20440;-81
2021/05/22 12:03:23;;;;;;;18.23;17.23;;;;;;;;;;4934343;29;20486;-81
2021/05/22 12:05:54;;;;;;;18.30;17.30;;;;;;;;;;4934270;29;21027;-81
2021/05/22 12:08:24;;;;;;;18.23;17.10;;;;;;;;;;4934229;29;20897;-82
2021/05/22 12:10:51;;;;;;;18.53;17.20;;;;;;;;;;4934223;29;20459;-81
2021/05/22 12:13:17;;;;;;;16.83;16.03;;;;;;;;;;4934441;29;20411;-81
2021/05/22 12:15:44;;;;;;;17.50;16.50;;;;;;;;;;4935975;29;20499;-81
2021/05/22 12:18:13;;;;;;;17.77;16.97;;;;;;;;;;4955546;28;20420;-81
2021/05/22 12:20:47;;;;;;;17.27;16.27;;;;;;;;;;4955787;29;20436;-82
2021/05/22 12:23:24;;;;;;;17.50;16.60;;;;;;;;;;4957670;28;20426;-83
2021/05/22 12:25:51;;;;;;;18.70;17.70;;;;;;;;;;4958585;29;20977;-83
2021/05/22 12:28:19;;;;;;;18.80;17.73;;;;;;;;;;4959796;28;20459;-84
2021/05/22 12:30:46;;;;;;;18.00;17.10;;;;;;;;;;4959767;28;20446;-83
2021/05/22 12:33:15;;;;;;;17.67;16.87;;;;;;;;;;4974147;28;20921;-83
2021/05/22 12:35:43;;;;;;;17.80;17.00;;;;;;;;;;4959156;29;20451;-83
2021/05/22 12:38:10;;;;;;;17.00;16.10;;;;;;;;;;4959338;29;20933;-83
2021/05/22 12:40:48;;;;;;;17.83;16.73;;;;;;;;;;4959467;28;20840;-83
2021/05/22 12:43:15;;;;;;;17.07;16.17;;;;;;;;;;4959276;29;20453;-83
2021/05/22 12:45:43;;;;;;;16.60;15.83;;;;;;;;;;4973436;28;20460;-83
2021/05/22 12:48:23;;;;;;;18.20;17.13;;;;;;;;;;5008746;28;20545;-83
2021/05/22 12:50:50;;;;;;;17.13;16.23;;;;;;;;;;5017625;28;20447;-83
2021/05/22 12:53:28;;;;;;;17.00;16.10;;;;;;;;;;5017648;28;20893;-83
2021/05/22 12:56:04;;;;;;;17.30;16.10;;;;;;;;;;5017470;28;20418;-82
2021/05/22 12:58:31;;;;;;;16.33;15.57;;;;;;;;;;5017124;28;20436;-83
2021/05/22 13:01:01;;;;;;;17.30;16.30;;;;;;;;;;5017455;28;20442;-82
2021/05/22 13:03:37;;;;;;;17.63;16.73;;;;;;;;;;5017509;28;20562;-82
2021/05/22 13:06:04;;;;;;;17.33;16.10;;;;;;;;;;4999934;28;21043;-83
2021/05/22 13:08:31;;;;;;;16.83;15.83;;;;;;;;;;4999972;28;20481;-83
2021/05/22 13:11:08;;;;;;;18.23;16.77;;;;;;;;;;5017042;28;20425;-83
2021/05/22 13:13:35;;;;;;;17.80;16.80;;;;;;;;;;5017213;28;20411;-83
2021/05/22 13:16:06;;;;;;;17.77;16.67;;;;;;;;;;5017299;28;20436;-82
2021/05/22 13:18:35;;;;;;;18.33;17.23;;;;;;;;;;5017322;28;20459;-82
2021/05/22 13:21:02;;;;;;;17.80;16.90;;;;;;;;;;4999537;28;20880;-82
2021/05/22 13:23:34;;;;;;;18.20;17.00;;;;;;;;;;5016804;28;20444;-83
2021/05/22 13:26:01;;;;;;;17.40;16.40;;;;;;;;;;5016976;28;20454;-82
2021/05/22 13:28:30;;;;;;;17.50;16.50;;;;;;;;;;5017064;28;20419;-83
2021/05/22 13:31:11;;;;;;;16.03;15.23;;;;;;;;;;5016761;28;20426;-84
2021/05/22 13:33:39;;;;;;;17.47;16.57;;;;;;;;;;5015983;28;20426;-83
2021/05/22 13:36:06;;;;;;;18.60;16.63;;;;;;;;;;5016480;28;20456;-83
2021/05/22 13:38:33;;;;;;;17.63;16.43;;;;;;;;;;5016593;28;20440;-82
2021/05/22 13:41:00;;;;;;;17.60;16.57;;;;;;;;;;5016790;28;20444;-83
2021/05/22 13:43:27;;;;;;;17.17;16.10;;;;;;;;;;5016484;28;20812;-82
2021/05/22 13:45:56;;;;;;;17.30;16.30;;;;;;;;;;4998881;28;20897;-83
2021/05/22 13:48:23;;;;;;;16.63;15.73;;;;;;;;;;5016533;28;20469;-82
2021/05/22 13:50:50;;;;;;;16.97;16.07;;;;;;;;;;5016441;28;20418;-83
2021/05/22 13:53:17;;;;;;;16.03;15.33;;;;;;;;;;5016194;28;20459;-84
2021/05/22 13:55:44;;;;;;;16.63;15.73;;;;;;;;;;5016236;28;20547;-83
2021/05/22 13:58:11;;;;;;;16.87;15.73;;;;;;;;;;5016531;28;20487;-83
2021/05/22 14:00:38;;;;;;;17.10;16.10;;;;;;;;;;5016193;28;20407;-83
2021/05/22 14:03:06;;;;;;;15.97;15.13;;;;;;;;;;5015884;28;20465;-82
2021/05/22 14:05:34;;;;;;;17.73;16.40;;;;;;;;;;5015993;28;20483;-80
2021/05/22 14:08:01;;;;;;;17.47;16.27;;;;;;;;;;5016387;28;20440;-84
2021/05/22 14:10:29;;;;;;;16.60;15.70;;;;;;;;;;5016405;28;20758;-83
2021/05/22 14:12:56;;;;;;;17.33;16.33;;;;;;;;;;5016295;28;20499;-84
2021/05/22 14:15:23;;;;;;;18.10;16.90;;;;;;;;;;5015943;28;20452;-84
2021/05/22 14:17:50;;;;;;;17.17;16.27;;;;;;;;;;5015925;28;20871;-84
2021/05/22 14:20:18;;;;;;;18.20;16.93;;;;;;;;;;5015670;28;20903;-85
2021/05/22 14:22:45;;;;;;;18.33;17.20;;;;;;;;;;5015760;28;20429;-82
2021/05/22 14:25:14;;;;;;;19.10;17.87;;;;;;;;;;5016024;28;20452;-81
2021/05/22 14:27:41;;;;;;;17.97;16.70;;;;;;;;;;5015921;28;20458;-84
2021/05/22 14:30:09;;;;;;;18.57;17.47;;;;;;;;;;5016251;28;20412;-90